createdAt,value
2023-01-28T00:02:51.019Z,101756.13
2023-01-28T00:05:54.116Z,101755.25
2023-01-28T00:08:55.888Z,101743.44
2023-01-28T00:11:57.402Z,101744.16
2023-01-28T00:14:59.061Z,101746.00
2023-01-28T00:18:00.531Z,101739.72
2023-01-28T00:21:05.318Z,101750.47
2023-01-28T00:24:09.432Z,101746.00
2023-01-28T00:27:11.193Z,101745.91
2023-01-28T00:30:13.137Z,101745.91
2023-01-28T00:33:14.640Z,101751.31
2023-01-28T00:36:17.934Z,101752.19
2023-01-28T00:39:19.440Z,101751.31
2023-01-28T00:42:20.907Z,101754.03
2023-01-28T00:45:22.462Z,101753.19
2023-01-28T00:48:23.927Z,101754.03
2023-01-28T00:51:25.490Z,101751.31
2023-01-28T00:54:26.991Z,101749.59
2023-01-28T00:57:28.557Z,101744.16
2023-01-28T01:00:30.120Z,101746.00
2023-01-28T01:03:31.911Z,101748.72
2023-01-28T01:06:36.625Z,101750.47
2023-01-28T01:09:38.121Z,101746.00
2023-01-28T01:12:39.953Z,101756.88
2023-01-28T01:15:42.262Z,101759.56
2023-01-28T01:18:43.906Z,101744.31
2023-01-28T01:21:50.307Z,101750.47
2023-01-28T01:24:51.771Z,101747.75
2023-01-28T01:27:53.424Z,101750.31
2023-01-28T01:31:03.570Z,101738.63
2023-01-28T01:34:05.189Z,101740.47
2023-01-28T01:37:08.436Z,101738.88
2023-01-28T01:40:11.122Z,101746.00
2023-01-28T01:43:21.176Z,101741.69
2023-01-28T01:46:29.133Z,101752.69
2023-01-28T01:49:30.672Z,101760.94
2023-01-28T01:52:35.171Z,101760.19
2023-01-28T01:55:41.082Z,101756.75
2023-01-28T01:58:47.252Z,101755.13
2023-01-28T02:01:49.276Z,101757.13
2023-01-28T02:04:51.093Z,101752.56
2023-01-28T02:07:55.683Z,101758.84
2023-01-28T02:11:04.850Z,101760.72
2023-01-28T02:14:06.703Z,101761.66
2023-01-28T02:17:08.616Z,101763.66
2023-01-28T02:20:12.053Z,101767.25
2023-01-28T02:23:29.288Z,101775.38
2023-01-28T02:26:52.719Z,101771.81
2023-01-28T02:30:15.736Z,101771.91
2023-01-28T02:33:44.848Z,101763.88
2023-01-28T02:36:51.261Z,101780.16
2023-01-28T02:39:57.881Z,101766.75
2023-01-28T02:42:59.610Z,101766.84
2023-01-28T02:46:30.460Z,101768.72
2023-01-28T02:49:51.809Z,101753.44
2023-01-28T02:53:24.222Z,101756.16
2023-01-28T02:56:35.913Z,101751.84
2023-01-28T03:00:01.661Z,101754.66
2023-01-28T03:03:12.440Z,101752.22
2023-01-28T03:06:18.964Z,101750.47
2023-01-28T03:09:22.393Z,101747.91
2023-01-28T03:12:46.053Z,101744.44
2023-01-28T03:16:07.822Z,101750.84
2023-01-28T03:19:30.401Z,101752.56
2023-01-28T03:22:56.221Z,101749.00
2023-01-28T03:26:20.014Z,101756.28
2023-01-28T03:29:43.685Z,101749.97
2023-01-28T03:33:07.613Z,101744.53
2023-01-28T03:36:29.309Z,101741.13
2023-01-28T03:39:31.320Z,101744.69
2023-01-28T03:42:33.415Z,101742.94
2023-01-28T03:46:06.264Z,101740.22
2023-01-28T03:49:08.302Z,101738.41
2023-01-28T03:52:10.011Z,101743.09
2023-01-28T03:55:14.985Z,101749.38
2023-01-28T03:58:18.809Z,101743.19
2023-01-28T04:01:21.232Z,101750.47
2023-01-28T04:04:24.449Z,101750.56
2023-01-28T04:07:28.761Z,101751.69
2023-01-28T04:10:56.115Z,101753.53
2023-01-28T04:14:04.950Z,101762.66
2023-01-28T04:17:19.593Z,101761.91
2023-01-28T04:20:21.601Z,101766.34
2023-01-28T04:23:23.766Z,101776.31
2023-01-28T04:26:25.402Z,101777.19
2023-01-28T04:29:27.119Z,101784.34
2023-01-28T04:32:32.281Z,101785.31
2023-01-28T04:35:41.138Z,101784.34
2023-01-28T04:38:54.404Z,101797.03
2023-01-28T04:42:19.002Z,101800.59
2023-01-28T04:45:32.045Z,101798.84
2023-01-28T04:48:44.512Z,101797.13
2023-01-28T04:52:15.294Z,101799.00
2023-01-28T04:55:49.373Z,101791.84
2023-01-28T04:58:50.948Z,101782.84
2023-01-28T05:01:52.482Z,101791.97
2023-01-28T05:04:54.829Z,101794.94
2023-01-28T05:08:09.786Z,101806.63
2023-01-28T05:11:11.366Z,101804.88
2023-01-28T05:14:13.108Z,101804.88
2023-01-28T05:17:30.811Z,101795.88
2023-01-28T05:20:32.534Z,101794.03
2023-01-28T05:23:37.133Z,101796.75
2023-01-28T05:26:38.835Z,101797.63
2023-01-28T05:29:40.676Z,101794.03
2023-01-28T05:32:42.649Z,101796.75
2023-01-28T05:35:44.463Z,101801.31
2023-01-28T05:38:46.127Z,101792.31
2023-01-28T05:41:47.896Z,101788.75
2023-01-28T05:44:49.510Z,101786.91
2023-01-28T05:47:57.884Z,101790.47
2023-01-28T05:51:34.780Z,101793.31
2023-01-28T05:54:36.283Z,101786.16
2023-01-28T05:57:38.132Z,101791.56
2023-01-28T06:00:40.862Z,101791.72
2023-01-28T06:03:42.635Z,101789.13
2023-01-28T06:06:44.659Z,101794.53
2023-01-28T06:09:48.149Z,101801.81
2023-01-28T06:12:52.710Z,101796.38
2023-01-28T06:16:09.209Z,101795.63
2023-01-28T06:19:33.821Z,101798.34
2023-01-28T06:22:35.774Z,101794.63
2023-01-28T06:25:37.625Z,101796.50
2023-01-28T06:28:44.318Z,101801.06
2023-01-28T06:31:45.858Z,101798.22
2023-01-28T06:34:47.571Z,101799.19
2023-01-28T06:37:49.082Z,101794.63
2023-01-28T06:40:55.908Z,101803.50
2023-01-28T06:43:57.503Z,101809.06
2023-01-28T06:46:58.990Z,101804.63
2023-01-28T06:50:00.445Z,101795.63
2023-01-28T06:53:01.996Z,101801.91
2023-01-28T06:56:03.921Z,101802.03
2023-01-28T06:59:05.890Z,101805.72
2023-01-28T07:02:07.443Z,101810.28
2023-01-28T07:05:09.362Z,101793.16
2023-01-28T07:08:10.910Z,101812.19
2023-01-28T07:11:12.466Z,101814.06
2023-01-28T07:14:13.973Z,101812.19
2023-01-28T07:17:15.530Z,101806.78
2023-01-28T07:20:18.674Z,101802.25
2023-01-28T07:23:20.425Z,101804.00
2023-01-28T07:26:21.915Z,101808.44
2023-01-28T07:29:23.476Z,101807.56
2023-01-28T07:32:27.392Z,101810.16
2023-01-28T07:35:29.618Z,101813.84
2023-01-28T07:38:31.142Z,101817.41
2023-01-28T07:41:32.737Z,101815.69
2023-01-28T07:44:40.059Z,101821.97
2023-01-28T07:47:41.777Z,101825.53
2023-01-28T07:50:43.396Z,101814.59
2023-01-28T07:53:44.883Z,101820.00
2023-01-28T07:56:46.724Z,101824.44
2023-01-28T07:59:48.198Z,101836.16
2023-01-28T08:02:49.772Z,101827.91
2023-01-28T08:05:53.148Z,101826.78
2023-01-28T08:08:55.161Z,101832.09
2023-01-28T08:11:56.614Z,101826.69
2023-01-28T08:14:58.129Z,101831.84
2023-01-28T08:18:00.557Z,101833.78
2023-01-28T08:21:02.175Z,101841.94
2023-01-28T08:24:03.935Z,101846.34
2023-01-28T08:27:05.554Z,101859.44
2023-01-28T08:30:09.107Z,101862.75
2023-01-28T08:33:13.282Z,101871.28
2023-01-28T08:36:15.668Z,101866.50
2023-01-28T08:39:17.277Z,101877.84
2023-01-28T08:42:18.941Z,101883.88
2023-01-28T08:45:22.817Z,101877.25
2023-01-28T08:48:24.413Z,101879.84
2023-01-28T08:51:25.951Z,101878.84
2023-01-28T08:54:27.450Z,101890.44
2023-01-28T08:57:28.904Z,101905.69
2023-01-28T09:00:30.567Z,101902.03
2023-01-28T09:03:32.592Z,101892.78
2023-01-28T09:06:34.088Z,101904.50
2023-01-28T09:09:35.632Z,101906.22
2023-01-28T09:12:37.489Z,101910.66
2023-01-28T09:15:39.148Z,101917.91
2023-01-28T09:18:41.019Z,101920.63
2023-01-28T09:21:42.532Z,101928.91
2023-01-28T09:24:44.117Z,101935.16
2023-01-28T09:27:46.474Z,101933.47
2023-01-28T09:30:48.005Z,101950.69
2023-01-28T09:33:54.734Z,101953.41
2023-01-28T09:36:56.990Z,101942.69
2023-01-28T09:39:58.535Z,101955.25
2023-01-28T09:43:02.963Z,101956.09
2023-01-28T09:46:06.346Z,101958.72
2023-01-28T09:49:34.960Z,101960.06
2023-01-28T09:52:40.432Z,101957.25
2023-01-28T09:55:54.656Z,101947.13
2023-01-28T09:59:01.232Z,101938.91
2023-01-28T10:02:04.843Z,101949.50
2023-01-28T10:05:24.499Z,101950.34
2023-01-28T10:08:44.583Z,101957.53
2023-01-28T10:11:55.173Z,101950.13
2023-01-28T10:15:34.462Z,101953.56
2023-01-28T11:23:47.713Z,101937.59
2023-01-28T11:26:52.128Z,101927.59
2023-01-28T11:29:57.141Z,101925.75
2023-01-28T11:33:05.744Z,101931.16
2023-01-28T11:36:15.346Z,101929.44
2023-01-28T11:39:25.992Z,101928.47
2023-01-28T11:42:27.543Z,101927.72
2023-01-28T11:45:48.151Z,101919.31
2023-01-28T11:49:01.688Z,101914.66
2023-01-28T11:52:14.336Z,101912.69
2023-01-28T11:55:41.228Z,101900.72
2023-01-28T11:59:10.864Z,101894.19
2023-01-28T12:02:25.889Z,101896.91
2023-01-28T12:06:33.305Z,101885.31
2023-01-28T12:09:45.194Z,101880.03
2023-01-28T12:13:05.512Z,101883.59
2023-01-28T12:16:13.021Z,101888.16
2023-01-28T12:19:53.529Z,101881.75
2023-01-28T12:23:03.927Z,101877.44
2023-01-28T12:26:13.186Z,101868.28
2023-01-28T12:29:52.896Z,101836.63
2023-01-28T12:33:03.337Z,101814.94
2023-01-28T12:36:14.046Z,101798.78
2023-01-28T12:39:56.956Z,101788.66
2023-01-28T12:43:02.932Z,101772.50
2023-01-28T12:46:16.520Z,101770.66
2023-01-28T12:49:21.276Z,101757.97
2023-01-28T12:52:28.930Z,101746.25
2023-01-28T12:55:47.263Z,101741.72
2023-01-28T12:59:06.009Z,101730.88
2023-01-28T13:02:13.721Z,101760.69
2023-01-28T13:05:22.899Z,101767.72
2023-01-28T13:08:27.239Z,101784.00
2023-01-28T13:11:35.428Z,101777.56
2023-01-28T13:14:37.160Z,101762.88
2023-01-28T13:17:38.669Z,101752.03
2023-01-28T13:20:46.030Z,101764.59
2023-01-28T13:23:49.752Z,101768.19
2023-01-28T13:26:56.165Z,101780.50
2023-01-28T13:30:22.956Z,101781.38
2023-01-28T13:33:36.926Z,101800.97
2023-01-28T13:36:44.783Z,101812.44
2023-01-28T13:39:53.045Z,101817.75
2023-01-28T13:43:03.500Z,101823.78
2023-01-28T13:46:07.140Z,101828.22
2023-01-28T13:49:16.020Z,101822.66
2023-01-28T13:52:25.026Z,101821.69
2023-01-28T13:55:44.178Z,101829.72
2023-01-28T13:59:13.862Z,101829.47
2023-01-28T14:02:53.068Z,101809.34
2023-01-28T14:06:11.522Z,101813.91
2023-01-28T14:09:31.340Z,101808.38
2023-01-28T14:12:51.628Z,101812.81
2023-01-28T14:16:05.542Z,101801.69
2023-01-28T14:19:13.282Z,101789.72
2023-01-28T14:22:20.234Z,101770.72
2023-01-28T14:25:30.649Z,101770.59
2023-01-28T14:29:03.240Z,101760.50
2023-01-28T14:32:11.852Z,101752.47
2023-01-28T14:35:20.036Z,101755.06
2023-01-28T14:38:24.210Z,101754.06
2023-01-28T14:41:27.804Z,101768.38
2023-01-28T14:44:37.737Z,101778.22
2023-01-28T14:47:54.373Z,101798.97
2023-01-28T14:51:16.981Z,101799.81
2023-01-28T14:54:27.599Z,101806.09
2023-01-28T14:57:43.541Z,101811.53
2023-01-28T15:00:56.927Z,101816.00
2023-01-28T15:03:58.829Z,101801.69
2023-01-28T15:07:21.574Z,101796.09
2023-01-28T15:10:37.802Z,101799.81
2023-01-28T15:13:43.691Z,101797.97
2023-01-28T15:16:55.682Z,101802.53
2023-01-28T15:19:57.975Z,101803.41
2023-01-28T15:23:02.664Z,101810.56
2023-01-28T15:26:13.436Z,101799.72
2023-01-28T15:29:36.288Z,101810.56
2023-01-28T15:32:37.729Z,101813.41
2023-01-28T15:35:47.053Z,101821.28
2023-01-28T15:38:48.527Z,101820.31
2023-01-28T15:41:54.021Z,101827.44
2023-01-28T15:44:58.214Z,101814.63
2023-01-28T15:48:05.753Z,101817.06
2023-01-28T15:51:18.531Z,101813.34
2023-01-28T15:54:20.579Z,101821.50
2023-01-28T15:57:27.518Z,101818.66
2023-01-28T16:00:31.202Z,101826.81
2023-01-28T16:03:34.213Z,101827.56
2023-01-28T16:06:38.594Z,101839.25
2023-01-28T16:09:40.233Z,101844.56
2023-01-28T16:12:41.801Z,101855.28
2023-01-28T16:15:48.311Z,101855.19
2023-01-28T16:18:53.100Z,101858.75
2023-01-28T16:21:54.699Z,101859.00
2023-01-28T16:24:56.273Z,101862.59
2023-01-28T16:27:59.704Z,101871.47
2023-01-28T16:31:01.317Z,101877.88
2023-01-28T16:34:02.834Z,101874.19
2023-01-28T16:37:10.021Z,101875.91
2023-01-28T16:40:13.184Z,101868.75
2023-01-28T16:43:16.785Z,101855.91
2023-01-28T16:46:18.526Z,101834.19
2023-01-28T16:49:20.029Z,101816.41
2023-01-28T16:52:21.552Z,101808.41
2023-01-28T16:55:23.158Z,101806.69
2023-01-28T16:58:26.749Z,101813.97
2023-01-28T17:01:28.801Z,101819.66
2023-01-28T17:04:30.325Z,101830.75
2023-01-28T17:07:31.998Z,101822.75
2023-01-28T17:10:33.936Z,101831.75
2023-01-28T17:13:35.409Z,101831.88
2023-01-28T17:16:37.299Z,101839.16
2023-01-28T17:19:38.914Z,101838.31
2023-01-28T17:22:40.373Z,101846.34
2023-01-28T17:25:42.833Z,101849.75
2023-01-28T17:28:44.524Z,101835.06
2023-01-28T17:31:46.024Z,101828.50
2023-01-28T17:34:48.243Z,101832.84
2023-01-28T17:37:53.975Z,101845.16
2023-01-28T17:41:01.457Z,101851.47
2023-01-28T17:44:04.458Z,101850.50
2023-01-28T17:47:05.923Z,101851.47
2023-01-28T17:50:07.593Z,101855.03
2023-01-28T17:53:10.326Z,101855.03
2023-01-28T17:56:23.513Z,101844.16
2023-01-28T17:59:25.921Z,101838.63
2023-01-28T18:02:27.721Z,101833.19
2023-01-28T18:05:29.270Z,101845.75
2023-01-28T18:08:30.835Z,101845.75
2023-01-28T18:11:32.882Z,101844.06
2023-01-28T18:14:35.243Z,101855.78
2023-01-28T18:17:36.849Z,101867.50
2023-01-28T18:20:38.336Z,101862.31
2023-01-28T18:23:39.776Z,101863.31
2023-01-28T18:26:41.370Z,101871.47
2023-01-28T18:29:43.085Z,101866.03
2023-01-28T18:32:44.764Z,101872.44
2023-01-28T18:35:47.044Z,101871.31
2023-01-28T18:38:48.867Z,101876.53
2023-01-28T18:41:54.166Z,101874.78
2023-01-28T18:44:55.613Z,101867.50
2023-01-28T18:47:57.079Z,101860.22
2023-01-28T18:50:58.748Z,101875.53
2023-01-28T18:54:02.508Z,101872.69
2023-01-28T18:57:04.909Z,101870.84
2023-01-28T19:00:07.157Z,101876.25
2023-01-28T19:03:08.747Z,101881.81
2023-01-28T19:06:10.487Z,101880.84
2023-01-28T19:09:14.544Z,101878.97
2023-01-28T19:12:15.982Z,101890.69
2023-01-28T19:15:17.724Z,101889.84
2023-01-28T19:18:19.391Z,101884.41
2023-01-28T19:21:22.027Z,101891.56
2023-01-28T19:24:23.563Z,101886.00
2023-01-28T19:27:25.344Z,101895.13
2023-01-28T19:30:26.818Z,101899.59
2023-01-28T19:33:28.637Z,101892.28
2023-01-28T19:36:32.745Z,101886.88
2023-01-28T19:39:34.264Z,101879.72
2023-01-28T19:42:35.936Z,101878.84
2023-01-28T19:45:37.419Z,101882.16
2023-01-28T19:48:38.897Z,101874.88
2023-01-28T19:51:40.424Z,101869.34
2023-01-28T19:54:41.920Z,101866.63
2023-01-28T19:57:44.681Z,101863.91
2023-01-28T20:00:46.215Z,101859.44
2023-01-28T20:03:57.398Z,101851.28
2023-01-28T20:06:58.893Z,101840.56
2023-01-28T20:10:00.398Z,101851.44
2023-01-28T20:13:01.873Z,101839.84
2023-01-28T20:16:31.084Z,101827.97
2023-01-28T20:19:34.779Z,101831.69
2023-01-28T20:22:39.276Z,101829.84
2023-01-28T20:25:40.772Z,101828.81
2023-01-28T20:28:42.226Z,101826.84
2023-01-28T20:31:43.972Z,101823.16
2023-01-28T20:34:45.680Z,101828.44
2023-01-28T20:37:47.121Z,101824.03
2023-01-28T20:40:48.576Z,101828.59
2023-01-28T20:43:51.547Z,101827.59
2023-01-28T20:46:53.055Z,101828.44
2023-01-28T20:49:54.504Z,101831.03
2023-01-28T20:52:56.230Z,101830.03
2023-01-28T20:55:58.769Z,101832.63
2023-01-28T20:59:03.642Z,101847.81
2023-01-28T21:02:05.383Z,101843.50
2023-01-28T21:05:07.408Z,101841.66
2023-01-28T21:08:08.917Z,101830.78
2023-01-28T21:11:11.563Z,101828.91
2023-01-28T21:14:16.754Z,101825.22
2023-01-28T21:17:18.336Z,101819.81
2023-01-28T21:20:20.343Z,101809.78
2023-01-28T21:23:24.926Z,101816.94
2023-01-28T21:26:27.323Z,101812.50
2023-01-28T21:29:28.836Z,101822.50
2023-01-28T21:32:30.514Z,101808.78
2023-01-28T21:35:36.020Z,101808.66
2023-01-28T21:38:38.039Z,101813.25
2023-01-28T21:41:39.809Z,101808.66
2023-01-28T21:44:41.664Z,101815.97
2023-01-28T21:47:43.142Z,101810.66
2023-01-28T21:51:03.163Z,101818.78
2023-01-28T21:54:11.660Z,101820.50
2023-01-28T21:57:13.246Z,101818.06
2023-01-28T22:00:15.617Z,101808.19
2023-01-28T22:03:18.073Z,101811.03
2023-01-28T22:06:19.657Z,101815.72
2023-01-28T22:09:22.063Z,101805.00
2023-01-28T22:12:23.785Z,101806.88
2023-01-28T22:15:25.431Z,101806.13
2023-01-28T22:18:27.411Z,101806.97
2023-01-28T22:21:29.046Z,101807.09
2023-01-28T22:24:30.842Z,101796.38
2023-01-28T22:27:32.357Z,101802.78
2023-01-28T22:30:33.891Z,101791.22
2023-01-28T22:33:35.926Z,101785.78
2023-01-28T22:36:37.811Z,101779.47
2023-01-28T22:39:39.285Z,101790.34
2023-01-28T22:42:40.804Z,101789.63
2023-01-28T22:45:42.315Z,101788.75
2023-01-28T22:48:44.377Z,101781.59
2023-01-28T22:51:45.902Z,101783.72
2023-01-28T22:54:47.728Z,101781.00
2023-01-28T22:57:49.357Z,101773.84
2023-01-28T23:00:50.911Z,101774.84
2023-01-28T23:03:53.167Z,101763.13
2023-01-28T23:06:54.650Z,101764.25
2023-01-28T23:09:56.253Z,101771.38
2023-01-28T23:12:57.724Z,101772.38
2023-01-28T23:16:17.981Z,101773.25
2023-01-28T23:19:38.156Z,101776.94
2023-01-28T23:22:58.395Z,101787.69
2023-01-28T23:26:00.179Z,101785.06
2023-01-28T23:29:01.729Z,101794.22
2023-01-28T23:32:07.142Z,101787.94
2023-01-28T23:35:10.111Z,101782.63
2023-01-28T23:38:11.645Z,101779.06
2023-01-28T23:41:13.111Z,101776.47
2023-01-28T23:44:16.295Z,101778.31
2023-01-28T23:47:18.873Z,101771.19
2023-01-28T23:50:20.385Z,101770.31
2023-01-28T23:53:21.846Z,101764.00
2023-01-28T23:56:23.317Z,101765.00
2023-01-28T23:59:24.810Z,101753.28
